sensor_id;sensor_type;location;lat;lon;timestamp;pressure;altitude;pressure_sealevel;temperature;humidity
42603;BME280;28233;55.748;48.752;2023-02-01T00:00:17;98813.97;;;0.14;100.00
42603;BME280;28233;55.748;48.752;2023-02-01T00:02:20;98816.94;;;0.17;100.00
42603;BME280;28233;55.748;48.752;2023-02-01T00:04:23;98812.59;;;0.16;100.00
42603;BME280;28233;55.748;48.752;2023-02-01T00:06:26;98818.84;;;0.17;100.00
42603;BME280;28233;55.748;48.752;2023-02-01T00:08:29;98824.22;;;0.22;100.00
42603;BME280;28233;55.748;48.752;2023-02-01T00:10:32;98818.28;;;0.25;100.00
42603;BME280;28233;55.748;48.752;2023-02-01T00:12:35;98820.44;;;0.23;100.00
42603;BME280;28233;55.748;48.752;2023-02-01T00:14:37;98811.53;;;0.17;100.00
42603;BME280;28233;55.748;48.752;2023-02-01T00:16:41;98811.28;;;0.24;100.00
42603;BME280;28233;55.748;48.752;2023-02-01T00:18:45;98806.66;;;0.25;100.00
42603;BME280;28233;55.748;48.752;2023-02-01T00:20:48;98809.91;;;0.22;100.00
42603;BME280;28233;55.748;48.752;2023-02-01T00:22:51;98810.72;;;0.22;100.00
42603;BME280;28233;55.748;48.752;2023-02-01T00:24:53;98818.28;;;0.25;100.00
42603;BME280;28233;55.748;48.752;2023-02-01T00:26:56;98813.97;;;0.19;100.00
42603;BME280;28233;55.748;48.752;2023-02-01T00:29:00;98816.69;;;0.19;100.00
42603;BME280;28233;55.748;48.752;2023-02-01T00:31:04;98808.03;;;0.12;100.00
42603;BME280;28233;55.748;48.752;2023-02-01T00:33:06;98815.59;;;0.20;100.00
42603;BME280;28233;55.748;48.752;2023-02-01T00:35:09;98807.50;;;0.15;100.00
42603;BME280;28233;55.748;48.752;2023-02-01T00:37:12;98799.09;;;0.11;100.00
42603;BME280;28233;55.748;48.752;2023-02-01T00:39:16;98799.38;;;0.20;100.00
42603;BME280;28233;55.748;48.752;2023-02-01T00:41:20;98783.97;;;0.26;100.00
42603;BME280;28233;55.748;48.752;2023-02-01T00:43:22;98785.59;;;0.27;100.00
42603;BME280;28233;55.748;48.752;2023-02-01T00:45:25;98786.66;;;0.26;100.00
42603;BME280;28233;55.748;48.752;2023-02-01T00:47:28;98770.22;;;0.17;99.57
42603;BME280;28233;55.748;48.752;2023-02-01T00:49:32;98792.06;;;0.26;99.35
42603;BME280;28233;55.748;48.752;2023-02-01T00:51:35;98783.72;;;0.22;99.14
42603;BME280;28233;55.748;48.752;2023-02-01T00:53:38;98790.19;;;0.21;98.82
42603;BME280;28233;55.748;48.752;2023-02-01T00:55:44;98789.91;;;0.23;98.75
42603;BME280;28233;55.748;48.752;2023-02-01T00:57:48;98781.03;;;0.17;98.87
42603;BME280;28233;55.748;48.752;2023-02-01T00:59:50;98779.94;;;0.13;98.01
42603;BME280;28233;55.748;48.752;2023-02-01T01:01:53;98774.53;;;0.08;98.74
42603;BME280;28233;55.748;48.752;2023-02-01T01:03:58;98766.69;;;0.06;98.75
42603;BME280;28233;55.748;48.752;2023-02-01T01:06:04;98784.53;;;0.07;99.08
42603;BME280;28233;55.748;48.752;2023-02-01T01:08:07;98796.16;;;0.03;98.60
42603;BME280;28233;55.748;48.752;2023-02-01T01:10:10;98849.09;;;-0.07;98.87
42603;BME280;28233;55.748;48.752;2023-02-01T01:12:13;98837.44;;;-0.17;98.69
42603;BME280;28233;55.748;48.752;2023-02-01T01:14:16;98846.09;;;-0.10;98.43
42603;BME280;28233;55.748;48.752;2023-02-01T01:16:21;98838.25;;;-0.12;98.78
42603;BME280;28233;55.748;48.752;2023-02-01T01:18:24;98843.38;;;-0.15;98.62
42603;BME280;28233;55.748;48.752;2023-02-01T01:20:27;98841.50;;;-0.15;98.79
42603;BME280;28233;55.748;48.752;2023-02-01T01:22:29;98847.16;;;-0.22;98.61
42603;BME280;28233;55.748;48.752;2023-02-01T01:24:32;98846.34;;;-0.17;98.14
42603;BME280;28233;55.748;48.752;2023-02-01T01:26:35;98847.69;;;-0.25;98.19
42603;BME280;28233;55.748;48.752;2023-02-01T01:28:37;98848.22;;;-0.28;98.31
42603;BME280;28233;55.748;48.752;2023-02-01T01:30:40;98842.28;;;-0.35;98.34
42603;BME280;28233;55.748;48.752;2023-02-01T01:32:43;98837.44;;;-0.33;98.02
42603;BME280;28233;55.748;48.752;2023-02-01T01:34:46;98849.53;;;-0.35;98.38
42603;BME280;28233;55.748;48.752;2023-02-01T01:36:49;98843.63;;;-0.37;98.77
42603;BME280;28233;55.748;48.752;2023-02-01T01:38:51;98854.69;;;-0.44;98.34
42603;BME280;28233;55.748;48.752;2023-02-01T01:40:54;98851.97;;;-0.44;98.77
42603;BME280;28233;55.748;48.752;2023-02-01T01:42:57;98854.38;;;-0.48;98.67
42603;BME280;28233;55.748;48.752;2023-02-01T01:45:06;98850.88;;;-0.48;99.01
42603;BME280;28233;55.748;48.752;2023-02-01T01:47:11;98842.50;;;-0.52;99.08
42603;BME280;28233;55.748;48.752;2023-02-01T01:49:17;98857.63;;;-0.51;98.66
42603;BME280;28233;55.748;48.752;2023-02-01T01:51:24;98848.16;;;-0.53;98.72
42603;BME280;28233;55.748;48.752;2023-02-01T01:53:38;98848.97;;;-0.58;99.00
42603;BME280;28233;55.748;48.752;2023-02-01T01:55:45;98840.88;;;-0.58;98.73
42603;BME280;28233;55.748;48.752;2023-02-01T01:57:58;98843.81;;;-0.59;98.12
42603;BME280;28233;55.748;48.752;2023-02-01T02:00:10;98836.00;;;-0.61;98.48
42603;BME280;28233;55.748;48.752;2023-02-01T02:02:14;98840.31;;;-0.65;98.85
42603;BME280;28233;55.748;48.752;2023-02-01T02:04:18;98847.84;;;-0.62;98.10
42603;BME280;28233;55.748;48.752;2023-02-01T02:06:27;98840.00;;;-0.74;98.16
42603;BME280;28233;55.748;48.752;2023-02-01T02:08:32;98833.25;;;-0.76;98.63
42603;BME280;28233;55.748;48.752;2023-02-01T02:10:36;98844.03;;;-0.76;99.22
42603;BME280;28233;55.748;48.752;2023-02-01T02:12:58;98837.28;;;-0.79;99.23
42603;BME280;28233;55.748;48.752;2023-02-01T02:15:01;98833.47;;;-0.83;98.76
42603;BME280;28233;55.748;48.752;2023-02-01T02:26:56;98848.31;;;-0.80;98.18
42603;BME280;28233;55.748;48.752;2023-02-01T02:33:52;98859.63;;;-0.89;98.19
42603;BME280;28233;55.748;48.752;2023-02-01T02:38:16;98862.91;;;-0.81;97.41
42603;BME280;28233;55.748;48.752;2023-02-01T02:45:28;98866.38;;;-0.86;97.35
42603;BME280;28233;55.748;48.752;2023-02-01T02:52:36;98875.78;;;-0.94;96.25
42603;BME280;28233;55.748;48.752;2023-02-01T02:55:00;98881.41;;;-1.00;96.85
42603;BME280;28233;55.748;48.752;2023-02-01T02:57:09;98891.97;;;-0.94;96.77
42603;BME280;28233;55.748;48.752;2023-02-01T02:59:33;98898.97;;;-0.93;96.52
42603;BME280;28233;55.748;48.752;2023-02-01T03:01:56;98892.78;;;-0.93;96.74
42603;BME280;28233;55.748;48.752;2023-02-01T03:04:18;98903.56;;;-0.93;96.40
42603;BME280;28233;55.748;48.752;2023-02-01T03:06:23;98901.97;;;-0.89;96.52
42603;BME280;28233;55.748;48.752;2023-02-01T03:08:28;98903.84;;;-0.90;96.06
42603;BME280;28233;55.748;48.752;2023-02-01T03:10:40;98898.44;;;-0.90;95.79
42603;BME280;28233;55.748;48.752;2023-02-01T03:12:44;98907.09;;;-0.88;95.09
42603;BME280;28233;55.748;48.752;2023-02-01T03:15:06;98891.13;;;-0.94;95.16
42603;BME280;28233;55.748;48.752;2023-02-01T03:17:14;98895.47;;;-0.93;95.25
42603;BME280;28233;55.748;48.752;2023-02-01T03:19:23;98900.63;;;-0.92;95.73
42603;BME280;28233;55.748;48.752;2023-02-01T03:26:37;98901.44;;;-0.86;94.26
42603;BME280;28233;55.748;48.752;2023-02-01T03:28:54;98898.75;;;-0.86;94.07
42603;BME280;28233;55.748;48.752;2023-02-01T03:31:12;98891.69;;;-0.92;93.42
42603;BME280;28233;55.748;48.752;2023-02-01T03:33:21;98895.75;;;-0.90;94.10
42603;BME280;28233;55.748;48.752;2023-02-01T03:37:48;98891.91;;;-1.04;93.19
42603;BME280;28233;55.748;48.752;2023-02-01T03:40:07;98898.13;;;-1.03;93.27
42603;BME280;28233;55.748;48.752;2023-02-01T03:42:43;98908.06;;;-1.04;92.84
42603;BME280;28233;55.748;48.752;2023-02-01T03:45:10;98914.00;;;-1.07;92.84
42603;BME280;28233;55.748;48.752;2023-02-01T03:47:30;98916.13;;;-1.09;92.95
42603;BME280;28233;55.748;48.752;2023-02-01T03:49:58;98911.19;;;-1.22;92.56
42603;BME280;28233;55.748;48.752;2023-02-01T03:52:20;98918.78;;;-1.19;92.92
42603;BME280;28233;55.748;48.752;2023-02-01T03:54:39;98919.28;;;-1.22;92.61
42603;BME280;28233;55.748;48.752;2023-02-01T03:56:46;98922.50;;;-1.25;92.45
42603;BME280;28233;55.748;48.752;2023-02-01T03:58:51;98917.59;;;-1.34;92.29
42603;BME280;28233;55.748;48.752;2023-02-01T04:01:17;98926.44;;;-1.43;91.82
42603;BME280;28233;55.748;48.752;2023-02-01T04:03:20;98926.72;;;-1.40;92.02
42603;BME280;28233;55.748;48.752;2023-02-01T04:05:24;98926.75;;;-1.35;92.29
42603;BME280;28233;55.748;48.752;2023-02-01T04:07:27;98925.31;;;-1.47;91.17
42603;BME280;28233;55.748;48.752;2023-02-01T04:09:29;98926.31;;;-1.54;91.90
42603;BME280;28233;55.748;48.752;2023-02-01T04:11:32;98917.41;;;-1.59;91.76
42603;BME280;28233;55.748;48.752;2023-02-01T04:13:35;98925.72;;;-1.61;91.69
42603;BME280;28233;55.748;48.752;2023-02-01T04:15:38;98927.91;;;-1.58;91.95
42603;BME280;28233;55.748;48.752;2023-02-01T04:17:40;98930.09;;;-1.55;91.88
42603;BME280;28233;55.748;48.752;2023-02-01T04:19:43;98933.03;;;-1.56;92.84
42603;BME280;28233;55.748;48.752;2023-02-01T04:21:46;98931.44;;;-1.57;91.61
42603;BME280;28233;55.748;48.752;2023-02-01T04:23:48;98934.41;;;-1.54;92.19
42603;BME280;28233;55.748;48.752;2023-02-01T04:25:51;98928.81;;;-1.47;91.58
42603;BME280;28233;55.748;48.752;2023-02-01T04:27:54;98937.13;;;-1.49;91.09
42603;BME280;28233;55.748;48.752;2023-02-01T04:29:57;98932.78;;;-1.55;90.69
42603;BME280;28233;55.748;48.752;2023-02-01T04:31:59;98941.38;;;-1.58;90.71
42603;BME280;28233;55.748;48.752;2023-02-01T04:34:02;98922.78;;;-1.59;90.76
42603;BME280;28233;55.748;48.752;2023-02-01T04:36:05;98938.16;;;-1.60;90.21
42603;BME280;28233;55.748;48.752;2023-02-01T04:38:08;98953.28;;;-1.54;90.13
42603;BME280;28233;55.748;48.752;2023-02-01T04:40:11;98959.78;;;-1.50;90.19
42603;BME280;28233;55.748;48.752;2023-02-01T04:42:14;98949.56;;;-1.47;90.15
42603;BME280;28233;55.748;48.752;2023-02-01T04:44:18;98958.50;;;-1.42;89.33
42603;BME280;28233;55.748;48.752;2023-02-01T04:46:21;98951.22;;;-1.41;89.74
42603;BME280;28233;55.748;48.752;2023-02-01T04:48:24;98953.91;;;-1.41;89.57
42603;BME280;28233;55.748;48.752;2023-02-01T04:50:27;98960.97;;;-1.35;88.81
42603;BME280;28233;55.748;48.752;2023-02-01T04:52:29;98959.97;;;-1.29;89.21
42603;BME280;28233;55.748;48.752;2023-02-01T04:54:32;98960.47;;;-1.27;88.56
42603;BME280;28233;55.748;48.752;2023-02-01T04:56:35;98981.84;;;-1.20;88.08
42603;BME280;28233;55.748;48.752;2023-02-01T04:58:37;98981.59;;;-1.19;88.49
42603;BME280;28233;55.748;48.752;2023-02-01T05:00:40;98982.44;;;-1.13;88.08
42603;BME280;28233;55.748;48.752;2023-02-01T05:02:43;98985.97;;;-1.13;88.17
42603;BME280;28233;55.748;48.752;2023-02-01T05:04:45;98988.91;;;-1.14;87.22
42603;BME280;28233;55.748;48.752;2023-02-01T05:06:48;98991.34;;;-1.13;87.42
42603;BME280;28233;55.748;48.752;2023-02-01T05:08:51;98987.56;;;-1.12;87.19
42603;BME280;28233;55.748;48.752;2023-02-01T05:10:54;98977.63;;;-1.06;86.96
42603;BME280;28233;55.748;48.752;2023-02-01T05:12:57;98985.47;;;-1.04;86.90
42603;BME280;28233;55.748;48.752;2023-02-01T05:15:18;98993.88;;;-1.01;86.27
42603;BME280;28233;55.748;48.752;2023-02-01T05:17:21;98997.66;;;-0.97;86.46
42603;BME280;28233;55.748;48.752;2023-02-01T05:19:24;98988.19;;;-0.99;86.20
42603;BME280;28233;55.748;48.752;2023-02-01T05:21:26;98996.06;;;-0.93;86.16
42603;BME280;28233;55.748;48.752;2023-02-01T05:23:29;99003.91;;;-0.91;85.71
42603;BME280;28233;55.748;48.752;2023-02-01T05:25:32;98997.44;;;-0.90;86.20
42603;BME280;28233;55.748;48.752;2023-02-01T05:27:35;99001.25;;;-0.86;86.08
42603;BME280;28233;55.748;48.752;2023-02-01T05:29:37;99006.31;;;-0.90;85.30
42603;BME280;28233;55.748;48.752;2023-02-01T05:31:40;99000.44;;;-0.87;84.92
42603;BME280;28233;55.748;48.752;2023-02-01T05:33:44;99001.50;;;-0.82;85.08
42603;BME280;28233;55.748;48.752;2023-02-01T05:35:46;99007.47;;;-0.80;84.97
42603;BME280;28233;55.748;48.752;2023-02-01T05:37:49;99009.88;;;-0.84;84.07
42603;BME280;28233;55.748;48.752;2023-02-01T05:39:52;99008.81;;;-0.83;84.37
42603;BME280;28233;55.748;48.752;2023-02-01T05:41:55;99008.78;;;-0.88;83.14
42603;BME280;28233;55.748;48.752;2023-02-01T05:43:57;99011.19;;;-0.92;83.60
42603;BME280;28233;55.748;48.752;2023-02-01T05:46:00;99010.91;;;-0.90;83.90
42603;BME280;28233;55.748;48.752;2023-02-01T05:48:03;99006.31;;;-0.90;83.83
42603;BME280;28233;55.748;48.752;2023-02-01T05:50:07;99006.63;;;-0.86;83.78
42603;BME280;28233;55.748;48.752;2023-02-01T05:52:09;99005.00;;;-0.87;83.37
42603;BME280;28233;55.748;48.752;2023-02-01T05:54:12;99002.34;;;-0.82;83.41
42603;BME280;28233;55.748;48.752;2023-02-01T05:56:15;98997.22;;;-0.83;83.46
42603;BME280;28233;55.748;48.752;2023-02-01T05:58:17;98993.69;;;-0.84;82.42
42603;BME280;28233;55.748;48.752;2023-02-01T06:00:21;98988.59;;;-0.80;82.74
42603;BME280;28233;55.748;48.752;2023-02-01T06:02:24;99000.75;;;-0.78;82.60
42603;BME280;28233;55.748;48.752;2023-02-01T06:04:27;98999.94;;;-0.78;82.68
42603;BME280;28233;55.748;48.752;2023-02-01T06:06:30;98996.97;;;-0.82;82.01
42603;BME280;28233;55.748;48.752;2023-02-01T06:08:32;98995.31;;;-0.83;82.41
42603;BME280;28233;55.748;48.752;2023-02-01T06:10:36;98991.56;;;-0.82;82.21
42603;BME280;28233;55.748;48.752;2023-02-01T06:12:39;98988.59;;;-0.80;82.33
42603;BME280;28233;55.748;48.752;2023-02-01T06:14:41;99004.56;;;-0.74;82.35
42603;BME280;28233;55.748;48.752;2023-02-01T06:16:45;99002.41;;;-0.72;82.35
42603;BME280;28233;55.748;48.752;2023-02-01T06:18:49;99003.19;;;-0.76;81.24
42603;BME280;28233;55.748;48.752;2023-02-01T06:20:55;99007.00;;;-0.72;82.35
42603;BME280;28233;55.748;48.752;2023-02-01T06:22:58;99006.22;;;-0.68;82.18
42603;BME280;28233;55.748;48.752;2023-02-01T06:25:03;99015.94;;;-0.61;82.29
42603;BME280;28233;55.748;48.752;2023-02-01T06:27:05;99010.88;;;-0.53;81.80
42603;BME280;28233;55.748;48.752;2023-02-01T06:29:12;99014.13;;;-0.51;81.62
42603;BME280;28233;55.748;48.752;2023-02-01T06:31:15;99012.53;;;-0.52;80.70
42603;BME280;28233;55.748;48.752;2023-02-01T06:33:18;99010.88;;;-0.53;81.26
42603;BME280;28233;55.748;48.752;2023-02-01T06:35:21;99024.94;;;-0.51;80.23
42603;BME280;28233;55.748;48.752;2023-02-01T06:37:24;99023.84;;;-0.50;80.01
42603;BME280;28233;55.748;48.752;2023-02-01T06:39:32;99029.28;;;-0.45;79.95
42603;BME280;28233;55.748;48.752;2023-02-01T06:41:35;99025.56;;;-0.33;80.00
42603;BME280;28233;55.748;48.752;2023-02-01T06:43:38;99025.53;;;-0.38;78.61
42603;BME280;28233;55.748;48.752;2023-02-01T06:45:41;99032.84;;;-0.34;78.88
42603;BME280;28233;55.748;48.752;2023-02-01T06:47:44;99030.94;;;-0.33;78.12
42603;BME280;28233;55.748;48.752;2023-02-01T06:49:46;99023.47;;;-0.21;77.72
42603;BME280;28233;55.748;48.752;2023-02-01T06:51:49;99037.25;;;-0.17;76.93
42603;BME280;28233;55.748;48.752;2023-02-01T06:53:52;99031.06;;;-0.13;77.50
42603;BME280;28233;55.748;48.752;2023-02-01T06:55:59;99039.94;;;-0.17;75.93
42603;BME280;28233;55.748;48.752;2023-02-01T06:58:02;99036.72;;;-0.14;76.61
42603;BME280;28233;55.748;48.752;2023-02-01T07:00:05;99056.69;;;-0.15;77.04
42603;BME280;28233;55.748;48.752;2023-02-01T07:02:11;99049.13;;;-0.18;76.50
42603;BME280;28233;55.748;48.752;2023-02-01T07:04:14;99042.84;;;-0.29;75.57
42603;BME280;28233;55.748;48.752;2023-02-01T07:06:18;99051.25;;;-0.26;75.24
42603;BME280;28233;55.748;48.752;2023-02-01T07:08:20;99047.97;;;-0.33;75.79
42603;BME280;28233;55.748;48.752;2023-02-01T07:10:23;99054.16;;;-0.37;74.27
42603;BME280;28233;55.748;48.752;2023-02-01T07:12:26;99050.34;;;-0.41;74.02
42603;BME280;28233;55.748;48.752;2023-02-01T07:14:29;99053.09;;;-0.36;74.13
42603;BME280;28233;55.748;48.752;2023-02-01T07:16:32;99037.41;;;-0.39;73.69
42603;BME280;28233;55.748;48.752;2023-02-01T07:18:35;99047.44;;;-0.35;73.12
42603;BME280;28233;55.748;48.752;2023-02-01T07:20:37;99041.75;;;-0.33;72.81
42603;BME280;28233;55.748;48.752;2023-02-01T07:22:40;99043.88;;;-0.40;70.15
42603;BME280;28233;55.748;48.752;2023-02-01T07:24:43;99036.28;;;-0.49;71.07
42603;BME280;28233;55.748;48.752;2023-02-01T07:26:45;99038.25;;;-0.34;72.61
42603;BME280;28233;55.748;48.752;2023-02-01T07:28:50;99032.41;;;-0.15;70.95
42603;BME280;28233;55.748;48.752;2023-02-01T07:30:52;99045.31;;;-0.28;69.82
42603;BME280;28233;55.748;48.752;2023-02-01T07:32:55;99031.56;;;-0.21;71.46
42603;BME280;28233;55.748;48.752;2023-02-01T07:35:01;99041.59;;;-0.16;70.70
42603;BME280;28233;55.748;48.752;2023-02-01T07:37:04;99024.19;;;-0.36;69.12
42603;BME280;28233;55.748;48.752;2023-02-01T07:39:07;99033.94;;;-0.35;68.87
42603;BME280;28233;55.748;48.752;2023-02-01T07:41:10;99039.69;;;-0.21;70.43
42603;BME280;28233;55.748;48.752;2023-02-01T07:43:13;99034.28;;;-0.21;69.61
42603;BME280;28233;55.748;48.752;2023-02-01T07:45:16;99041.84;;;-0.13;69.59
42603;BME280;28233;55.748;48.752;2023-02-01T07:47:22;99044.81;;;-0.14;68.61
42603;BME280;28233;55.748;48.752;2023-02-01T07:49:25;99044.53;;;-0.18;68.77
42603;BME280;28233;55.748;48.752;2023-02-01T07:51:28;99046.47;;;-0.08;68.83
42603;BME280;28233;55.748;48.752;2023-02-01T07:53:32;99041.84;;;-0.13;67.96
42603;BME280;28233;55.748;48.752;2023-02-01T07:55:38;99060.44;;;-0.22;66.73
42603;BME280;28233;55.748;48.752;2023-02-01T07:57:40;99058.81;;;-0.23;67.12
42603;BME280;28233;55.748;48.752;2023-02-01T07:59:43;99054.78;;;-0.20;68.39
42603;BME280;28233;55.748;48.752;2023-02-01T08:02:05;99059.09;;;-0.19;66.63
42603;BME280;28233;55.748;48.752;2023-02-01T08:04:10;99060.75;;;-0.18;68.00
42603;BME280;28233;55.748;48.752;2023-02-01T08:06:13;99065.06;;;-0.12;66.94
42603;BME280;28233;55.748;48.752;2023-02-01T08:08:16;99060.50;;;-0.11;67.49
42603;BME280;28233;55.748;48.752;2023-02-01T08:10:19;99062.13;;;-0.05;66.99
42603;BME280;28233;55.748;48.752;2023-02-01T08:12:22;99068.63;;;-0.06;65.71
42603;BME280;28233;55.748;48.752;2023-02-01T08:14:27;99061.31;;;-0.11;65.71
42603;BME280;28233;55.748;48.752;2023-02-01T08:16:30;99061.00;;;-0.14;67.72
42603;BME280;28233;55.748;48.752;2023-02-01T08:18:34;99068.28;;;-0.20;65.35
42603;BME280;28233;55.748;48.752;2023-02-01T08:20:37;99054.31;;;-0.07;67.25
42603;BME280;28233;55.748;48.752;2023-02-01T08:22:43;99064.16;;;0.25;66.92
42603;BME280;28233;55.748;48.752;2023-02-01T08:24:49;99060.72;;;0.45;66.19
42603;BME280;28233;55.748;48.752;2023-02-01T08:26:52;99051.81;;;0.50;63.41
42603;BME280;28233;55.748;48.752;2023-02-01T08:28:57;99055.88;;;0.52;63.09
42603;BME280;28233;55.748;48.752;2023-02-01T08:31:08;99055.63;;;0.64;62.79
42603;BME280;28233;55.748;48.752;2023-02-01T08:33:11;99050.75;;;0.66;61.99
42603;BME280;28233;55.748;48.752;2023-02-01T08:35:14;99067.25;;;0.80;63.03
42603;BME280;28233;55.748;48.752;2023-02-01T08:37:16;99070.00;;;0.95;62.58
42603;BME280;28233;55.748;48.752;2023-02-01T08:39:19;99058.38;;;0.90;61.78
42603;BME280;28233;55.748;48.752;2023-02-01T08:41:24;99061.03;;;0.79;61.83
42603;BME280;28233;55.748;48.752;2023-02-01T08:43:28;99051.84;;;0.91;62.60
42603;BME280;28233;55.748;48.752;2023-02-01T08:45:31;99053.50;;;1.07;62.21
42603;BME280;28233;55.748;48.752;2023-02-01T08:47:34;99053.19;;;1.03;61.06
42603;BME280;28233;55.748;48.752;2023-02-01T08:49:37;99055.13;;;0.88;60.66
42603;BME280;28233;55.748;48.752;2023-02-01T08:51:40;99052.66;;;0.81;61.23
42603;BME280;28233;55.748;48.752;2023-02-01T08:53:43;99055.06;;;0.67;60.88
42603;BME280;28233;55.748;48.752;2023-02-01T08:55:46;99052.09;;;0.58;60.52
42603;BME280;28233;55.748;48.752;2023-02-01T08:57:49;99047.50;;;0.59;61.72
42603;BME280;28233;55.748;48.752;2023-02-01T08:59:52;99053.44;;;0.61;60.81
42603;BME280;28233;55.748;48.752;2023-02-01T09:01:54;99054.81;;;0.63;61.36
42603;BME280;28233;55.748;48.752;2023-02-01T09:03:58;99063.19;;;0.77;62.23
42603;BME280;28233;55.748;48.752;2023-02-01T09:06:06;99063.75;;;0.79;61.37
42603;BME280;28233;55.748;48.752;2023-02-01T09:08:10;99055.09;;;0.77;61.86
42603;BME280;28233;55.748;48.752;2023-02-01T09:10:15;99059.94;;;0.65;60.87
42603;BME280;28233;55.748;48.752;2023-02-01T09:12:22;99054.78;;;0.53;60.54
42603;BME280;28233;55.748;48.752;2023-02-01T09:14:25;99057.97;;;0.40;60.39
42603;BME280;28233;55.748;48.752;2023-02-01T09:16:28;99059.56;;;0.26;61.12
42603;BME280;28233;55.748;48.752;2023-02-01T09:18:30;99051.97;;;0.17;61.71
42603;BME280;28233;55.748;48.752;2023-02-01T09:20:33;99056.06;;;0.30;62.00
42603;BME280;28233;55.748;48.752;2023-02-01T09:22:36;99052.84;;;0.33;61.02
42603;BME280;28233;55.748;48.752;2023-02-01T09:24:39;99049.84;;;0.30;61.16
42603;BME280;28233;55.748;48.752;2023-02-01T09:26:41;99062.00;;;0.22;60.85
42603;BME280;28233;55.748;48.752;2023-02-01T09:28:44;99058.94;;;0.03;60.58
42603;BME280;28233;55.748;48.752;2023-02-01T09:30:47;99053.22;;;-0.06;61.12
42603;BME280;28233;55.748;48.752;2023-02-01T09:32:50;99059.97;;;-0.13;61.47
42603;BME280;28233;55.748;48.752;2023-02-01T09:34:53;99054.00;;;-0.15;61.29
42603;BME280;28233;55.748;48.752;2023-02-01T09:36:55;99059.66;;;-0.17;61.03
42603;BME280;28233;55.748;48.752;2023-02-01T09:38:59;99069.09;;;-0.19;61.69
42603;BME280;28233;55.748;48.752;2023-02-01T09:41:10;99060.72;;;-0.23;61.17
42603;BME280;28233;55.748;48.752;2023-02-01T09:43:36;99064.00;;;-0.16;61.94
42603;BME280;28233;55.748;48.752;2023-02-01T09:46:02;99069.41;;;-0.16;59.95
42603;BME280;28233;55.748;48.752;2023-02-01T09:48:14;99071.81;;;-0.14;61.16
42603;BME280;28233;55.748;48.752;2023-02-01T09:50:22;99074.34;;;0.03;61.44
42603;BME280;28233;55.748;48.752;2023-02-01T09:52:55;99065.16;;;0.04;60.77
42603;BME280;28233;55.748;48.752;2023-02-01T09:55:03;99075.97;;;0.09;61.23
42603;BME280;28233;55.748;48.752;2023-02-01T09:57:28;99072.28;;;0.30;60.98
42603;BME280;28233;55.748;48.752;2023-02-01T09:59:40;99072.28;;;0.30;60.88
42603;BME280;28233;55.748;48.752;2023-02-01T10:01:44;99066.38;;;0.33;61.04
42603;BME280;28233;55.748;48.752;2023-02-01T10:03:46;99074.19;;;0.35;59.98
42603;BME280;28233;55.748;48.752;2023-02-01T10:10:57;99068.53;;;0.41;59.20
42603;BME280;28233;55.748;48.752;2023-02-01T10:20:26;99082.53;;;0.23;58.92
42603;BME280;28233;55.748;48.752;2023-02-01T10:22:42;99081.47;;;0.24;58.18
42603;BME280;28233;55.748;48.752;2023-02-01T10:25:26;99092.56;;;0.33;57.20
42603;BME280;28233;55.748;48.752;2023-02-01T10:27:34;99094.97;;;0.19;57.23
42603;BME280;28233;55.748;48.752;2023-02-01T10:29:40;99091.63;;;0.07;57.46
42603;BME280;28233;55.748;48.752;2023-02-01T10:31:43;99086.28;;;0.12;58.11
42603;BME280;28233;55.748;48.752;2023-02-01T10:33:51;99085.44;;;0.11;58.64
42603;BME280;28233;55.748;48.752;2023-02-01T10:36:00;99085.16;;;0.03;56.91
42603;BME280;28233;55.748;48.752;2023-02-01T10:38:16;99096.81;;;0.13;58.27
42603;BME280;28233;55.748;48.752;2023-02-01T10:40:24;99090.91;;;0.22;58.01
42603;BME280;28233;55.748;48.752;2023-02-01T10:42:29;99091.72;;;0.22;58.30
42603;BME280;28233;55.748;48.752;2023-02-01T10:44:37;99103.34;;;0.28;58.01
42603;BME280;28233;55.748;48.752;2023-02-01T10:46:43;99102.56;;;0.32;58.64
42603;BME280;28233;55.748;48.752;2023-02-01T10:48:47;99100.09;;;0.26;58.29
42603;BME280;28233;55.748;48.752;2023-02-01T10:50:57;99097.94;;;0.23;58.10
42603;BME280;28233;55.748;48.752;2023-02-01T10:55:29;99096.03;;;0.28;58.08
42603;BME280;28233;55.748;48.752;2023-02-01T10:57:34;99097.94;;;0.28;58.12
42603;BME280;28233;55.748;48.752;2023-02-01T10:59:40;99108.03;;;0.48;58.91
42603;BME280;28233;55.748;48.752;2023-02-01T11:01:49;99102.63;;;0.53;58.56
42603;BME280;28233;55.748;48.752;2023-02-01T11:03:57;99112.63;;;0.52;57.68
42603;BME280;28233;55.748;48.752;2023-02-01T11:06:04;99112.88;;;0.46;57.43
42603;BME280;28233;55.748;48.752;2023-02-01T11:08:24;99108.84;;;0.58;56.89
42603;BME280;28233;55.748;48.752;2023-02-01T11:10:42;99099.94;;;0.68;57.60
42603;BME280;28233;55.748;48.752;2023-02-01T11:12:53;99102.16;;;0.76;57.96
42603;BME280;28233;55.748;48.752;2023-02-01T11:19:17;99093.16;;;0.50;57.28
42603;BME280;28233;55.748;48.752;2023-02-01T11:21:20;99098.00;;;0.43;59.41
42603;BME280;28233;55.748;48.752;2023-02-01T11:23:27;99096.09;;;0.33;58.26
42603;BME280;28233;55.748;48.752;2023-02-01T11:25:34;99097.09;;;0.17;57.72
42603;BME280;28233;55.748;48.752;2023-02-01T11:27:38;99101.63;;;0.01;59.39
42603;BME280;28233;55.748;48.752;2023-02-01T11:29:59;99103.75;;;-0.06;59.32
42603;BME280;28233;55.748;48.752;2023-02-01T11:32:07;99098.91;;;-0.04;60.50
42603;BME280;28233;55.748;48.752;2023-02-01T11:34:17;99096.75;;;-0.02;60.07
42603;BME280;28233;55.748;48.752;2023-02-01T11:36:26;99098.03;;;-0.10;60.26
42603;BME280;28233;55.748;48.752;2023-02-01T11:38:31;99102.28;;;-0.24;59.80
42603;BME280;28233;55.748;48.752;2023-02-01T11:40:36;99098.69;;;-0.40;60.14
42603;BME280;28233;55.748;48.752;2023-02-01T11:43:07;99104.31;;;-0.47;59.13
42603;BME280;28233;55.748;48.752;2023-02-01T11:45:18;99093.16;;;-0.60;58.62
42603;BME280;28233;55.748;48.752;2023-02-01T11:47:26;99087.66;;;-0.71;58.81
42603;BME280;28233;55.748;48.752;2023-02-01T11:49:30;99100.97;;;-0.59;59.48
42603;BME280;28233;55.748;48.752;2023-02-01T11:59:12;99110.28;;;-0.77;60.59
42603;BME280;28233;55.748;48.752;2023-02-01T12:13:02;99113.81;;;-0.71;60.40